Time;durP1;ratioP1;P1;durP2;ratioP2;P2;SDS_P1;SDS_P2;PMS_P1;PMS_P2;Temp;Humidity;BMP_temperature;BMP_pressure;BME280_temperature;BME280_humidity;BME280_pressure;Samples;Min_cycle;Max_cycle;Signal;HPM_P1;HPM_P2
2024/02/14 00:00:41;;;;;;;4.10;1.58;;;11.70;99.90;;;;;;4853101;29;20139;-79
2024/02/14 00:03:08;;;;;;;3.78;1.63;;;11.70;99.90;;;;;;4852887;29;20084;-80
2024/02/14 00:05:35;;;;;;;2.55;1.20;;;11.70;99.90;;;;;;4853040;29;20053;-79
2024/02/14 00:08:03;;;;;;;1.80;1.10;;;11.80;99.90;;;;;;4852828;29;20083;-79
2024/02/14 00:10:30;;;;;;;3.10;1.42;;;11.80;99.90;;;;;;4851783;29;20114;-79
2024/02/14 00:12:57;;;;;;;4.30;1.50;;;11.80;99.90;;;;;;4854218;29;20061;-78
2024/02/14 00:15:24;;;;;;;2.72;1.10;;;11.80;99.90;;;;;;4854977;29;20057;-79
2024/02/14 00:17:51;;;;;;;1.63;1.00;;;11.80;99.90;;;;;;4855866;29;20068;-80
2024/02/14 00:20:19;;;;;;;3.80;1.73;;;11.80;99.90;;;;;;4854612;29;20137;-79
2024/02/14 00:22:46;;;;;;;3.97;1.20;;;11.80;99.90;;;;;;4853325;29;20053;-80
2024/02/14 00:25:13;;;;;;;3.83;1.60;;;11.80;99.90;;;;;;4851406;29;20291;-80
2024/02/14 00:27:44;;;;;;;5.90;1.67;;;11.80;99.90;;;;;;4852904;29;20057;-79
2024/02/14 00:30:12;;;;;;;5.45;1.60;;;11.80;99.90;;;;;;4851712;29;20050;-80
2024/02/14 00:32:39;;;;;;;3.97;1.42;;;11.80;99.90;;;;;;4858409;29;20048;-80
2024/02/14 00:35:07;;;;;;;4.00;1.58;;;11.80;99.90;;;;;;4851125;29;20106;-80
2024/02/14 00:37:34;;;;;;;3.75;1.40;;;11.80;99.90;;;;;;4851055;29;20068;-79
2024/02/14 00:40:01;;;;;;;2.50;1.70;;;11.80;99.90;;;;;;4849783;29;20172;-80
2024/02/14 00:42:29;;;;;;;2.13;1.13;;;11.80;99.90;;;;;;4851838;29;20501;-80
2024/02/14 00:44:56;;;;;;;2.65;1.00;;;11.90;99.90;;;;;;4851611;29;20525;-80
2024/02/14 00:47:23;;;;;;;5.38;1.20;;;11.90;99.90;;;;;;4849885;29;20057;-80
2024/02/14 00:49:50;;;;;;;2.25;1.20;;;11.90;99.90;;;;;;4851172;29;20145;-80
2024/02/14 00:52:17;;;;;;;2.78;1.02;;;11.90;99.90;;;;;;4849631;29;20144;-81
2024/02/14 00:54:44;;;;;;;4.93;1.60;;;11.90;99.90;;;;;;4849883;29;20444;-82
2024/02/14 00:57:11;;;;;;;3.67;1.38;;;12.00;99.90;;;;;;4867269;29;20060;-79
2024/02/14 00:59:38;;;;;;;1.50;0.75;;;12.00;99.90;;;;;;4863856;29;20113;-81
2024/02/14 01:02:05;;;;;;;2.28;0.90;;;12.00;99.90;;;;;;4851123;29;20068;-80
2024/02/14 01:04:32;;;;;;;2.55;1.20;;;12.00;99.90;;;;;;4834091;29;20057;-81
2024/02/14 01:06:59;;;;;;;3.58;1.02;;;12.00;99.90;;;;;;4832699;29;20050;-80
2024/02/14 01:09:26;;;;;;;3.63;1.50;;;12.00;99.90;;;;;;4850150;29;20045;-82
2024/02/14 01:11:54;;;;;;;3.63;1.17;;;12.00;99.90;;;;;;4850007;29;20061;-79
2024/02/14 01:14:22;;;;;;;2.13;0.98;;;12.00;99.90;;;;;;4850648;29;20524;-81
2024/02/14 01:16:49;;;;;;;2.40;1.13;;;12.00;99.90;;;;;;4852325;29;20137;-80
2024/02/14 01:19:18;;;;;;;2.67;1.15;;;12.00;99.90;;;;;;4849273;29;20053;-80
2024/02/14 01:21:48;;;;;;;1.98;1.13;;;12.00;99.90;;;;;;4835585;29;20492;-79
2024/02/14 01:24:16;;;;;;;2.30;0.93;;;12.00;99.90;;;;;;4849090;29;20086;-79
2024/02/14 01:26:43;;;;;;;1.92;0.88;;;12.00;99.90;;;;;;4850354;29;20060;-79
2024/02/14 01:29:10;;;;;;;2.17;0.98;;;12.00;99.90;;;;;;4851693;29;20061;-79
2024/02/14 01:31:37;;;;;;;2.28;1.20;;;12.00;99.90;;;;;;4850857;29;20080;-79
2024/02/14 01:34:03;;;;;;;1.80;1.00;;;12.00;99.90;;;;;;4855667;29;20173;-80
2024/02/14 01:36:31;;;;;;;1.63;0.73;;;11.90;99.90;;;;;;4850423;29;20109;-80
2024/02/14 01:38:57;;;;;;;1.55;0.70;;;11.90;99.90;;;;;;4849334;29;20534;-80
2024/02/14 01:41:24;;;;;;;2.33;0.95;;;11.90;99.90;;;;;;4850571;29;20053;-80
2024/02/14 01:43:51;;;;;;;1.33;0.63;;;11.90;99.90;;;;;;4857599;29;20055;-80
2024/02/14 01:46:18;;;;;;;2.90;0.95;;;11.80;99.90;;;;;;4851728;29;20058;-80
2024/02/14 01:48:45;;;;;;;1.38;0.70;;;11.80;99.90;;;;;;4850382;29;20065;-80
2024/02/14 01:51:12;;;;;;;1.77;0.70;;;11.80;99.90;;;;;;4851706;29;20064;-80
2024/02/14 01:53:39;;;;;;;1.60;0.80;;;11.70;99.90;;;;;;4848441;29;20409;-79
2024/02/14 01:56:06;;;;;;;1.77;1.00;;;11.70;99.90;;;;;;4850276;29;20053;-79
2024/02/14 01:58:33;;;;;;;0.70;0.60;;;11.70;99.90;;;;;;4851095;29;20119;-80
2024/02/14 02:01:00;;;;;;;1.60;0.70;;;11.70;99.90;;;;;;4850528;29;20056;-80
2024/02/14 02:03:27;;;;;;;1.30;0.55;;;11.70;99.90;;;;;;4855752;29;20992;-80
2024/02/14 02:05:54;;;;;;;2.08;0.80;;;11.70;99.90;;;;;;4850156;29;20133;-79
2024/02/14 02:08:22;;;;;;;1.60;0.68;;;11.70;99.90;;;;;;4834550;29;20437;-80
2024/02/14 02:10:49;;;;;;;1.55;0.63;;;11.70;99.90;;;;;;4864193;29;20053;-79
2024/02/14 02:13:16;;;;;;;0.60;0.50;;;11.70;99.90;;;;;;4853582;29;20132;-80
2024/02/14 02:15:46;;;;;;;0.80;0.65;;;11.70;99.90;;;;;;4850534;29;20527;-80
2024/02/14 02:18:14;;;;;;;1.42;0.90;;;11.70;99.90;;;;;;4851808;29;20064;-80
2024/02/14 02:20:44;;;;;;;1.15;0.70;;;11.70;99.90;;;;;;4850023;29;20050;-80
2024/02/14 02:23:15;;;;;;;1.30;0.70;;;11.70;99.90;;;;;;4849623;29;20386;-80
2024/02/14 02:25:42;;;;;;;1.17;0.68;;;11.80;99.90;;;;;;4855957;29;20049;-80
2024/02/14 02:28:09;;;;;;;0.95;0.80;;;11.80;99.90;;;;;;4835573;29;20132;-80
2024/02/14 02:30:36;;;;;;;2.35;1.10;;;11.80;99.90;;;;;;4836608;29;20109;-80
2024/02/14 02:33:04;;;;;;;1.27;0.60;;;11.90;99.90;;;;;;4836766;29;20110;-80
2024/02/14 02:35:31;;;;;;;2.25;1.00;;;11.90;99.90;;;;;;4835103;29;20618;-80
2024/02/14 02:37:58;;;;;;;0.52;0.47;;;12.00;99.90;;;;;;4850184;29;20057;-79
2024/02/14 02:40:27;;;;;;;1.40;0.50;;;12.00;99.90;;;;;;4849799;29;20509;-81
2024/02/14 02:42:54;;;;;;;0.55;0.40;;;12.10;99.90;;;;;;4841538;29;20056;-80
2024/02/14 02:45:21;;;;;;;1.80;0.60;;;12.10;99.90;;;;;;4840533;29;20049;-81
2024/02/14 02:47:51;;;;;;;0.75;0.50;;;12.10;99.90;;;;;;4857242;29;20053;-81
2024/02/14 02:50:19;;;;;;;1.13;0.63;;;12.20;99.90;;;;;;4856108;29;20053;-80
2024/02/14 02:52:46;;;;;;;1.42;1.00;;;12.20;99.90;;;;;;4855362;29;20057;-80
2024/02/14 02:55:14;;;;;;;1.63;0.57;;;12.20;99.90;;;;;;4855770;29;20868;-80
2024/02/14 02:57:43;;;;;;;1.60;1.15;;;12.20;99.90;;;;;;4856228;29;20085;-80
2024/02/14 03:00:12;;;;;;;1.75;0.73;;;12.30;99.90;;;;;;4856398;29;20053;-80
2024/02/14 03:02:45;;;;;;;0.45;0.45;;;12.30;99.90;;;;;;4863172;29;20128;-80
2024/02/14 03:05:17;;;;;;;0.95;0.57;;;12.30;99.90;;;;;;4841642;29;20416;-80
2024/02/14 03:07:47;;;;;;;0.60;0.52;;;12.30;99.90;;;;;;4840685;29;20053;-80
2024/02/14 03:10:17;;;;;;;1.38;0.60;;;12.30;99.90;;;;;;4855556;29;20152;-80
2024/02/14 03:12:48;;;;;;;1.15;0.52;;;12.30;99.90;;;;;;4855478;29;20056;-80
2024/02/14 03:15:15;;;;;;;0.93;0.50;;;12.30;99.90;;;;;;4855675;29;20107;-81
2024/02/14 03:17:44;;;;;;;0.70;0.50;;;12.30;99.90;;;;;;4855718;29;20059;-81
2024/02/14 03:20:15;;;;;;;1.65;0.50;;;12.30;99.90;;;;;;4855960;29;20413;-80
2024/02/14 03:22:44;;;;;;;1.00;0.80;;;12.30;99.90;;;;;;4855320;29;20058;-80
2024/02/14 03:25:18;;;;;;;0.40;0.40;;;12.30;99.90;;;;;;4855598;29;20141;-80
2024/02/14 03:27:48;;;;;;;0.30;0.30;;;12.30;99.90;;;;;;4822126;29;20072;-80
2024/02/14 03:30:16;;;;;;;0.68;0.50;;;12.40;99.90;;;;;;4837187;29;20057;-81
2024/02/14 03:32:44;;;;;;;0.60;0.60;;;12.40;99.90;;;;;;4830759;29;20132;-80
2024/02/14 03:35:15;;;;;;;0.82;0.50;;;12.40;99.90;;;;;;4855426;29;20073;-80
2024/02/14 03:37:42;;;;;;;0.70;0.40;;;12.40;99.90;;;;;;4854726;29;20054;-80
2024/02/14 03:40:09;;;;;;;0.47;0.45;;;12.40;99.90;;;;;;4855932;29;20166;-80
2024/02/14 03:42:39;;;;;;;0.80;0.40;;;12.40;99.90;;;;;;4854358;29;20421;-80
2024/02/14 03:45:07;;;;;;;0.40;0.40;;;12.40;99.90;;;;;;4855476;29;20057;-80
2024/02/14 03:47:35;;;;;;;0.55;0.30;;;12.30;99.90;;;;;;4870258;29;20264;-81
2024/02/14 03:50:04;;;;;;;0.68;0.50;;;12.30;99.90;;;;;;4875158;29;20136;-81
2024/02/14 03:52:34;;;;;;;0.80;0.52;;;12.30;99.90;;;;;;4873099;29;20049;-80
2024/02/14 03:55:01;;;;;;;0.55;0.40;;;12.30;99.90;;;;;;4857081;29;20049;-81
2024/02/14 03:57:28;;;;;;;0.75;0.45;;;12.30;99.90;;;;;;4839647;29;20076;-80
2024/02/14 03:59:55;;;;;;;0.63;0.50;;;12.30;99.90;;;;;;4855049;29;20464;-80
2024/02/14 04:02:27;;;;;;;0.35;0.30;;;12.30;99.90;;;;;;4854702;29;20057;-80
2024/02/14 04:04:55;;;;;;;0.45;0.45;;;12.30;99.90;;;;;;4854784;29;20057;-80
2024/02/14 04:07:22;;;;;;;1.75;0.40;;;12.30;99.90;;;;;;4850163;29;20053;-81
2024/02/14 04:09:49;;;;;;;1.60;0.70;;;12.30;99.90;;;;;;4850803;29;20066;-80
2024/02/14 04:12:16;;;;;;;0.63;0.50;;;12.30;99.90;;;;;;4837263;29;20054;-80
2024/02/14 04:14:42;;;;;;;0.47;0.40;;;12.30;99.90;;;;;;4862988;29;20116;-80
2024/02/14 04:17:11;;;;;;;0.40;0.40;;;12.30;99.90;;;;;;4857867;29;20057;-80
2024/02/14 04:19:37;;;;;;;0.73;0.52;;;12.30;99.90;;;;;;4858043;29;20065;-80
2024/02/14 04:22:05;;;;;;;1.88;0.90;;;12.30;99.90;;;;;;4872059;29;20538;-80
2024/02/14 04:24:35;;;;;;;0.90;0.50;;;12.30;99.90;;;;;;4830204;29;20057;-81
2024/02/14 04:27:03;;;;;;;0.60;0.55;;;12.30;99.90;;;;;;4838956;29;20086;-81
2024/02/14 04:29:33;;;;;;;1.08;0.40;;;12.30;99.90;;;;;;4839659;29;20053;-79
2024/02/14 04:32:01;;;;;;;1.27;0.60;;;12.30;99.90;;;;;;4854391;29;20144;-80
2024/02/14 04:34:28;;;;;;;1.25;0.50;;;12.30;99.90;;;;;;4838695;29;20050;-80
2024/02/14 04:36:56;;;;;;;0.65;0.60;;;12.30;99.90;;;;;;4854432;29;20275;-81
2024/02/14 04:39:23;;;;;;;0.70;0.45;;;12.30;99.90;;;;;;4853658;29;20152;-81
2024/02/14 04:41:50;;;;;;;0.50;0.50;;;12.30;99.90;;;;;;4854149;29;20498;-80
2024/02/14 04:44:28;;;;;;;0.55;0.32;;;12.30;99.90;;;;;;4855184;29;20540;-80
2024/02/14 04:46:56;;;;;;;0.73;0.50;;;12.30;99.90;;;;;;4864514;29;20080;-81
2024/02/14 04:49:23;;;;;;;0.30;0.30;;;12.40;99.90;;;;;;4872708;29;20060;-80
2024/02/14 04:51:51;;;;;;;0.40;0.40;;;12.40;99.90;;;;;;4872761;29;20556;-80
2024/02/14 04:54:18;;;;;;;0.30;0.30;;;12.30;99.90;;;;;;4861689;29;20109;-81
2024/02/14 04:56:45;;;;;;;0.40;0.40;;;12.30;99.90;;;;;;4854155;29;20057;-81
2024/02/14 04:59:13;;;;;;;0.30;0.30;;;12.40;99.90;;;;;;4855467;29;20053;-80
2024/02/14 05:01:40;;;;;;;0.52;0.52;;;12.40;99.90;;;;;;4838917;29;20049;-80
2024/02/14 05:04:07;;;;;;;0.40;0.40;;;12.40;99.90;;;;;;4855023;29;20064;-80
2024/02/14 05:06:34;;;;;;;0.38;0.30;;;12.30;99.90;;;;;;4854100;29;20156;-81
2024/02/14 05:09:01;;;;;;;0.38;0.38;;;12.30;99.90;;;;;;4853691;29;20057;-80
2024/02/14 05:11:28;;;;;;;0.50;0.40;;;12.30;99.90;;;;;;4853843;29;20057;-79
2024/02/14 05:13:55;;;;;;;0.47;0.47;;;12.30;99.90;;;;;;4853419;29;20141;-81
2024/02/14 05:16:23;;;;;;;0.47;0.40;;;12.30;99.90;;;;;;4861623;29;20059;-80
2024/02/14 05:18:50;;;;;;;0.20;0.20;;;12.30;99.90;;;;;;4871470;29;20045;-80
2024/02/14 05:21:20;;;;;;;0.35;0.35;;;12.30;99.90;;;;;;4872453;29;20064;-80
2024/02/14 05:23:46;;;;;;;0.32;0.32;;;12.30;99.90;;;;;;4865998;29;20654;-80
2024/02/14 05:26:13;;;;;;;0.32;0.32;;;12.20;99.90;;;;;;4854943;29;20057;-80
2024/02/14 05:28:40;;;;;;;0.30;0.30;;;12.20;99.90;;;;;;4853288;29;20049;-80
2024/02/14 05:31:07;;;;;;;0.38;0.30;;;12.20;99.90;;;;;;4853949;29;20053;-81
2024/02/14 05:33:34;;;;;;;0.30;0.30;;;12.20;99.90;;;;;;4853404;29;20457;-80
2024/02/14 05:36:01;;;;;;;0.35;0.35;;;12.20;99.90;;;;;;4853648;29;20073;-81
2024/02/14 05:38:29;;;;;;;0.30;0.30;;;12.20;99.90;;;;;;4852546;29;20605;-81
2024/02/14 05:40:56;;;;;;;0.30;0.30;;;12.20;99.90;;;;;;4869972;29;20271;-80
2024/02/14 05:43:24;;;;;;;0.30;0.30;;;12.20;99.90;;;;;;4855428;29;20133;-80
2024/02/14 05:45:51;;;;;;;0.30;0.30;;;12.20;99.90;;;;;;4853639;29;20053;-80
2024/02/14 05:48:18;;;;;;;0.47;0.30;;;12.20;99.90;;;;;;4852964;29;20055;-81
2024/02/14 05:50:46;;;;;;;0.40;0.40;;;12.20;99.90;;;;;;4856681;29;20065;-80
2024/02/14 05:53:13;;;;;;;0.40;0.40;;;12.10;99.90;;;;;;4854185;29;20314;-81
2024/02/14 05:55:39;;;;;;;0.20;0.20;;;12.10;99.90;;;;;;4855903;29;20711;-81
2024/02/14 05:58:06;;;;;;;1.17;0.40;;;12.10;99.90;;;;;;4851551;29;20126;-81
2024/02/14 06:00:33;;;;;;;0.35;0.30;;;12.10;99.90;;;;;;4851029;29;20053;-81
2024/02/14 06:03:06;;;;;;;0.40;0.30;;;12.10;99.90;;;;;;4847207;29;20176;-80
2024/02/14 06:05:33;;;;;;;0.30;0.30;;;12.10;99.90;;;;;;4821267;29;20105;-80
2024/02/14 06:08:02;;;;;;;0.52;0.35;;;12.10;99.90;;;;;;4853976;29;21046;-81
2024/02/14 06:10:29;;;;;;;1.02;0.50;;;12.20;99.90;;;;;;4857847;29;20058;-80
2024/02/14 06:12:56;;;;;;;0.30;0.30;;;12.10;99.90;;;;;;4858401;29;20050;-81
2024/02/14 06:15:23;;;;;;;1.30;0.40;;;12.10;99.90;;;;;;4857132;29;20049;-81
2024/02/14 06:17:50;;;;;;;0.52;0.40;;;12.20;99.90;;;;;;4854505;29;20054;-81
2024/02/14 06:20:18;;;;;;;0.30;0.30;;;12.20;99.90;;;;;;4872830;29;20049;-80
2024/02/14 06:22:45;;;;;;;0.85;0.40;;;12.20;99.90;;;;;;4867801;29;20053;-81
2024/02/14 06:25:23;;;;;;;0.30;0.30;;;12.20;99.90;;;;;;4839327;29;20484;-81
2024/02/14 06:27:49;;;;;;;0.60;0.40;;;12.20;99.90;;;;;;4838661;29;20053;-80
2024/02/14 06:30:17;;;;;;;0.57;0.40;;;12.10;99.90;;;;;;4854038;29;20324;-80
2024/02/14 06:32:44;;;;;;;1.00;0.50;;;12.10;99.90;;;;;;4855766;29;20045;-80
2024/02/14 06:35:14;;;;;;;0.57;0.38;;;12.20;99.90;;;;;;4853569;29;20137;-80
2024/02/14 06:37:42;;;;;;;0.70;0.40;;;12.10;99.90;;;;;;4853168;29;20060;-80
2024/02/14 06:40:22;;;;;;;0.55;0.55;;;12.10;99.90;;;;;;4853657;29;20258;-79
2024/02/14 06:42:50;;;;;;;1.65;0.40;;;12.10;99.90;;;;;;4856798;29;20138;-80
2024/02/14 06:45:17;;;;;;;0.40;0.40;;;12.10;99.90;;;;;;4857890;29;20092;-81
2024/02/14 06:47:44;;;;;;;0.30;0.30;;;12.20;99.90;;;;;;4853760;29;20055;-80
2024/02/14 06:50:11;;;;;;;0.90;0.40;;;12.10;99.90;;;;;;4853065;29;20053;-79
2024/02/14 06:52:38;;;;;;;0.35;0.30;;;12.10;99.90;;;;;;4854438;29;20057;-81
2024/02/14 06:55:05;;;;;;;0.30;0.30;;;12.10;99.90;;;;;;4856887;29;20125;-81
2024/02/14 06:57:32;;;;;;;0.30;0.30;;;12.10;99.90;;;;;;4857356;29;20049;-80
2024/02/14 06:59:58;;;;;;;0.40;0.30;;;12.10;99.90;;;;;;4857807;29;20049;-80
2024/02/14 07:02:27;;;;;;;0.32;0.32;;;12.10;99.90;;;;;;4855020;29;20478;-81
2024/02/14 07:04:55;;;;;;;0.20;0.17;;;12.10;99.90;;;;;;4854515;29;20049;-80
2024/02/14 07:07:22;;;;;;;0.20;0.20;;;12.10;99.90;;;;;;4854954;29;20060;-79
2024/02/14 07:09:49;;;;;;;0.30;0.30;;;12.10;99.90;;;;;;4855126;29;20057;-81
2024/02/14 07:12:15;;;;;;;0.60;0.60;;;12.10;99.90;;;;;;4852961;29;20075;-80
2024/02/14 07:14:42;;;;;;;0.30;0.30;;;12.10;99.90;;;;;;4841626;29;20675;-81
2024/02/14 07:17:09;;;;;;;0.30;0.30;;;12.10;99.90;;;;;;4863471;29;20081;-80
2024/02/14 07:19:38;;;;;;;0.30;0.30;;;12.10;99.90;;;;;;4853450;29;20061;-80
2024/02/14 07:22:05;;;;;;;0.20;0.20;;;12.10;99.90;;;;;;4838488;29;20140;-81
2024/02/14 07:24:32;;;;;;;0.63;0.40;;;12.10;99.90;;;;;;4862036;29;20053;-80
2024/02/14 07:26:59;;;;;;;0.40;0.32;;;12.10;99.90;;;;;;4857071;29;20075;-81
2024/02/14 07:29:25;;;;;;;0.30;0.30;;;12.10;99.90;;;;;;4835779;29;20549;-81
2024/02/14 07:31:53;;;;;;;0.22;0.20;;;12.10;99.90;;;;;;4856519;29;20049;-80
2024/02/14 07:34:20;;;;;;;0.35;0.35;;;12.20;99.90;;;;;;4839073;29;20060;-81
2024/02/14 07:36:47;;;;;;;0.22;0.22;;;12.20;99.90;;;;;;4857607;29;20045;-80
2024/02/14 07:39:14;;;;;;;0.30;0.30;;;12.20;99.90;;;;;;4861804;29;20057;-80
2024/02/14 07:41:41;;;;;;;0.30;0.30;;;12.20;99.90;;;;;;4838122;29;20199;-80
2024/02/14 07:44:09;;;;;;;0.40;0.40;;;12.20;99.90;;;;;;4853767;29;20060;-83
2024/02/14 07:46:36;;;;;;;0.30;0.30;;;12.30;99.90;;;;;;4838767;29;20217;-81
2024/02/14 07:49:04;;;;;;;0.20;0.20;;;12.30;99.90;;;;;;4853412;29;20117;-80
2024/02/14 07:51:36;;;;;;;0.22;0.22;;;12.30;99.90;;;;;;4852297;29;20061;-81
2024/02/14 07:54:04;;;;;;;0.20;0.20;;;12.30;99.90;;;;;;4853748;29;20064;-78
2024/02/14 07:56:31;;;;;;;0.30;0.30;;;12.30;99.90;;;;;;4855798;29;20077;-79
2024/02/14 07:58:58;;;;;;;0.30;0.30;;;12.40;99.90;;;;;;4852249;29;20208;-79
2024/02/14 08:01:26;;;;;;;0.30;0.30;;;12.40;99.90;;;;;;4850367;29;20045;-78
2024/02/14 08:03:54;;;;;;;0.30;0.30;;;12.40;99.90;;;;;;4854661;29;20073;-79
2024/02/14 08:06:21;;;;;;;0.20;0.20;;;12.40;99.90;;;;;;4850909;29;20072;-80
2024/02/14 08:08:57;;;;;;;0.32;0.30;;;12.50;99.90;;;;;;4849801;29;20057;-78
2024/02/14 08:11:24;;;;;;;0.25;0.25;;;12.50;99.90;;;;;;4848717;29;20473;-78
2024/02/14 08:13:51;;;;;;;0.32;0.32;;;12.50;99.90;;;;;;4859174;29;20045;-79
2024/02/14 08:16:17;;;;;;;0.30;0.30;;;12.50;99.90;;;;;;4862295;29;20095;-79
2024/02/14 08:18:45;;;;;;;0.20;0.20;;;12.60;99.90;;;;;;4867779;29;20056;-79
2024/02/14 08:21:12;;;;;;;0.40;0.30;;;12.50;99.90;;;;;;4857105;29;20049;-79
2024/02/14 08:23:40;;;;;;;0.20;0.20;;;12.60;99.90;;;;;;4851525;29;20132;-81
2024/02/14 08:26:10;;;;;;;0.73;0.30;;;12.60;99.90;;;;;;4833875;29;20117;-81
2024/02/14 08:28:38;;;;;;;0.30;0.30;;;12.60;99.90;;;;;;4851809;29;20461;-81
2024/02/14 08:31:14;;;;;;;0.30;0.30;;;12.70;99.90;;;;;;4837355;29;20049;-81
2024/02/14 08:33:41;;;;;;;0.40;0.40;;;12.70;99.90;;;;;;4851491;29;20057;-81
2024/02/14 08:36:08;;;;;;;0.30;0.30;;;12.70;99.90;;;;;;4852095;29;20053;-81
2024/02/14 08:38:35;;;;;;;0.40;0.40;;;12.70;99.90;;;;;;4851555;29;20068;-81
2024/02/14 08:41:02;;;;;;;0.52;0.50;;;12.80;99.90;;;;;;4852039;29;20097;-81
2024/02/14 08:43:29;;;;;;;0.30;0.30;;;12.80;99.90;;;;;;4838692;29;20058;-80
2024/02/14 08:45:57;;;;;;;0.40;0.30;;;12.70;99.90;;;;;;4841621;29;20473;-81
2024/02/14 08:48:25;;;;;;;0.40;0.40;;;12.70;99.90;;;;;;4846210;29;20049;-82
2024/02/14 08:50:52;;;;;;;0.32;0.30;;;12.70;99.90;;;;;;4845147;29;20065;-82
2024/02/14 08:53:18;;;;;;;0.40;0.40;;;12.80;99.90;;;;;;4871186;29;20628;-81
2024/02/14 08:55:45;;;;;;;0.40;0.40;;;12.80;99.90;;;;;;4856546;29;20061;-81
2024/02/14 08:58:12;;;;;;;0.52;0.35;;;12.80;99.90;;;;;;4864901;29;20120;-81
2024/02/14 09:00:39;;;;;;;0.57;0.40;;;12.80;99.90;;;;;;4863839;29;20053;-82
2024/02/14 09:03:06;;;;;;;0.30;0.30;;;12.80;99.90;;;;;;4858418;29;20290;-82
2024/02/14 09:05:33;;;;;;;0.40;0.40;;;12.90;99.90;;;;;;4854325;29;20136;-81
2024/02/14 09:08:00;;;;;;;0.43;0.35;;;12.90;99.90;;;;;;4851693;29;20049;-81
2024/02/14 09:10:28;;;;;;;0.30;0.30;;;12.90;99.90;;;;;;4851726;29;20054;-81
2024/02/14 09:12:55;;;;;;;0.30;0.30;;;13.00;99.90;;;;;;4845042;29;20046;-82
2024/02/14 09:15:22;;;;;;;0.40;0.40;;;13.00;99.90;;;;;;4852069;29;20061;-81
2024/02/14 09:17:48;;;;;;;0.20;0.20;;;13.00;99.90;;;;;;4861039;29;20053;-81
2024/02/14 09:20:15;;;;;;;0.30;0.30;;;13.10;99.90;;;;;;4866437;29;20082;-81
2024/02/14 09:22:42;;;;;;;0.25;0.25;;;13.00;99.90;;;;;;4851430;29;20068;-82
2024/02/14 09:25:09;;;;;;;0.15;0.15;;;13.10;99.90;;;;;;4840544;29;20575;-80
2024/02/14 09:27:36;;;;;;;0.25;0.25;;;13.00;99.90;;;;;;4865655;29;20461;-81
2024/02/14 09:30:04;;;;;;;0.40;0.40;;;13.00;99.90;;;;;;4856802;29;20061;-81
2024/02/14 09:32:31;;;;;;;0.35;0.30;;;13.00;99.90;;;;;;4849277;29;20080;-82
2024/02/14 09:35:04;;;;;;;0.20;0.20;;;12.90;99.90;;;;;;4851455;29;20136;-83
2024/02/14 09:37:31;;;;;;;;;;;12.90;99.90;;;;;;4836549;29;20520;-82
2024/02/14 09:39:58;;;;;;;0.30;0.30;;;12.90;99.90;;;;;;4835386;29;19927;-83
2024/02/14 09:42:33;;;;;;;0.35;0.35;;;12.90;99.90;;;;;;4857776;29;20053;-84
2024/02/14 09:44:59;;;;;;;0.40;0.40;;;12.90;99.90;;;;;;4854128;29;20069;-83
2024/02/14 09:47:29;;;;;;;0.10;0.10;;;12.90;99.90;;;;;;4850997;29;20050;-84
2024/02/14 09:49:56;;;;;;;0.32;0.32;;;12.90;99.90;;;;;;4852437;29;20057;-81
2024/02/14 09:52:22;;;;;;;0.30;0.30;;;12.80;99.90;;;;;;4862741;29;21098;-82
2024/02/14 09:54:49;;;;;;;0.30;0.30;;;12.80;99.90;;;;;;4851928;29;20171;-82
2024/02/14 09:57:16;;;;;;;0.30;0.30;;;12.80;99.90;;;;;;4842216;29;20057;-83
2024/02/14 09:59:44;;;;;;;0.30;0.30;;;12.80;99.90;;;;;;4839329;29;20194;-81
2024/02/14 10:02:11;;;;;;;0.30;0.30;;;12.70;99.90;;;;;;4819559;29;21034;-83
2024/02/14 10:04:39;;;;;;;0.30;0.30;;;12.70;99.90;;;;;;4824638;29;20068;-84
2024/02/14 10:07:06;;;;;;;0.10;0.10;;;12.70;99.90;;;;;;4854446;29;20172;-84
2024/02/14 10:09:41;;;;;;;0.30;0.30;;;12.70;99.90;;;;;;4861594;29;20060;-84
2024/02/14 10:12:08;;;;;;;0.30;0.30;;;12.70;99.90;;;;;;4865721;29;20045;-84
2024/02/14 10:14:40;;;;;;;0.30;0.30;;;12.70;99.90;;;;;;4852215;29;20060;-83
2024/02/14 10:17:09;;;;;;;0.20;0.20;;;12.70;99.90;;;;;;4860746;29;20053;-80
2024/02/14 10:19:36;;;;;;;0.30;0.30;;;12.70;99.90;;;;;;4842467;29;20057;-83
2024/02/14 10:22:05;;;;;;;0.20;0.20;;;12.70;99.90;;;;;;4850770;29;20056;-83
2024/02/14 10:24:32;;;;;;;0.30;0.30;;;12.70;99.90;;;;;;4844912;29;20034;-85
2024/02/14 10:27:01;;;;;;;0.10;0.10;;;12.60;99.90;;;;;;4850187;29;20128;-85
2024/02/14 10:29:29;;;;;;;0.30;0.30;;;12.60;99.90;;;;;;4856501;29;20064;-85
2024/02/14 10:31:56;;;;;;;0.30;0.30;;;12.70;99.90;;;;;;4856553;29;20132;-83
2024/02/14 10:34:27;;;;;;;0.43;0.30;;;12.70;99.90;;;;;;4859204;29;20113;-83
2024/02/14 10:36:56;;;;;;;0.50;0.30;;;12.70;99.90;;;;;;4868320;29;20100;-84
2024/02/14 10:39:25;;;;;;;0.38;0.38;;;12.70;99.90;;;;;;4856884;29;20053;-83
2024/02/14 10:41:52;;;;;;;0.30;0.30;;;12.70;99.90;;;;;;4862277;29;20537;-84
2024/02/14 10:44:20;;;;;;;0.30;0.30;;;12.70;99.90;;;;;;4851345;29;20080;-84
2024/02/14 10:46:47;;;;;;;0.22;0.22;;;12.70;99.90;;;;;;4852817;29;20113;-85
2024/02/14 10:49:15;;;;;;;0.25;0.25;;;12.70;99.90;;;;;;4851438;29;20109;-84
2024/02/14 10:51:42;;;;;;;0.20;0.20;;;12.70;99.90;;;;;;4850733;29;20049;-84
2024/02/14 10:54:12;;;;;;;0.22;0.22;;;12.70;99.90;;;;;;4855384;29;20082;-84
2024/02/14 10:56:42;;;;;;;0.30;0.30;;;12.80;99.90;;;;;;4844616;29;20418;-83
2024/02/14 10:59:11;;;;;;;0.30;0.30;;;12.80;99.90;;;;;;4856412;29;20061;-83
2024/02/14 11:01:38;;;;;;;0.28;0.28;;;12.80;99.90;;;;;;4847850;29;20057;-83
2024/02/14 11:04:05;;;;;;;0.30;0.30;;;12.80;99.90;;;;;;4852214;29;20060;-82
2024/02/14 11:06:46;;;;;;;0.30;0.30;;;12.90;99.90;;;;;;4867218;29;20052;-82
2024/02/14 11:09:15;;;;;;;0.30;0.30;;;12.90;99.90;;;;;;4860396;29;20067;-82
2024/02/14 11:11:46;;;;;;;0.22;0.22;;;12.90;99.90;;;;;;4862204;29;20096;-83
2024/02/14 11:14:19;;;;;;;0.35;0.30;;;12.90;99.90;;;;;;4848693;29;20569;-82
2024/02/14 11:16:46;;;;;;;0.28;0.20;;;13.00;99.90;;;;;;4856155;29;20063;-82
2024/02/14 11:19:16;;;;;;;0.20;0.20;;;13.00;99.90;;;;;;4866712;29;20053;-82
2024/02/14 11:21:46;;;;;;;0.30;0.30;;;13.10;99.90;;;;;;4856252;29;20061;-84
2024/02/14 11:24:15;;;;;;;0.30;0.30;;;13.10;99.90;;;;;;4849923;29;20845;-82
2024/02/14 11:26:52;;;;;;;0.30;0.30;;;13.20;99.90;;;;;;4850594;29;20144;-83
2024/02/14 11:29:20;;;;;;;0.52;0.28;;;13.20;99.90;;;;;;4838513;29;20067;-83
2024/02/14 11:32:01;;;;;;;0.20;0.20;;;13.20;99.90;;;;;;4857335;29;20050;-83
2024/02/14 11:34:31;;;;;;;0.20;0.20;;;13.30;99.90;;;;;;4839588;29;20053;-83
2024/02/14 11:37:04;;;;;;;0.30;0.30;;;13.30;99.90;;;;;;4857392;29;20076;-79
2024/02/14 11:39:33;;;;;;;0.38;0.38;;;13.40;99.90;;;;;;4852733;29;20050;-83
2024/02/14 11:42:00;;;;;;;0.30;0.30;;;13.40;99.90;;;;;;4851430;29;20060;-83
2024/02/14 11:44:27;;;;;;;0.40;0.40;;;13.40;99.90;;;;;;4852328;29;20132;-83
2024/02/14 11:46:54;;;;;;;0.32;0.32;;;13.40;99.90;;;;;;4857161;29;20085;-83
2024/02/14 11:49:20;;;;;;;0.52;0.50;;;13.40;99.90;;;;;;4823197;29;20053;-83
2024/02/14 11:51:48;;;;;;;0.52;0.40;;;13.40;99.90;;;;;;4838789;29;20159;-82
2024/02/14 11:54:15;;;;;;;0.50;0.40;;;13.40;99.90;;;;;;4853372;29;20053;-83
2024/02/14 11:56:42;;;;;;;0.30;0.30;;;13.50;99.90;;;;;;4852776;29;20144;-83
2024/02/14 11:59:10;;;;;;;0.57;0.57;;;13.50;99.90;;;;;;4861240;29;20053;-83
2024/02/14 12:01:38;;;;;;;0.32;0.30;;;13.50;99.90;;;;;;4863825;29;20061;-83
2024/02/14 12:04:07;;;;;;;0.55;0.50;;;13.50;99.90;;;;;;4851965;29;20046;-84
2024/02/14 12:06:37;;;;;;;1.10;0.63;;;13.50;99.90;;;;;;4855336;29;20526;-83
2024/02/14 12:09:05;;;;;;;1.20;0.40;;;13.50;99.90;;;;;;4841620;29;20064;-84
2024/02/14 12:11:33;;;;;;;0.95;0.50;;;13.60;99.90;;;;;;4858988;29;20049;-84
2024/02/14 12:14:05;;;;;;;0.75;0.35;;;13.70;99.90;;;;;;4857644;29;20052;-83
2024/02/14 12:16:35;;;;;;;0.70;0.52;;;13.70;99.90;;;;;;4859083;29;20132;-86
2024/02/14 12:19:09;;;;;;;0.57;0.40;;;13.80;99.90;;;;;;4858072;29;20091;-85
2024/02/14 12:21:37;;;;;;;0.40;0.40;;;13.80;99.90;;;;;;4861262;29;20053;-85
2024/02/14 12:24:09;;;;;;;1.63;0.60;;;13.90;99.90;;;;;;4861755;29;20077;-80
2024/02/14 12:26:37;;;;;;;0.57;0.47;;;13.90;99.90;;;;;;4859126;29;20739;-80
2024/02/14 12:29:05;;;;;;;0.20;0.20;;;13.90;99.90;;;;;;4832019;29;20050;-78
2024/02/14 12:31:32;;;;;;;0.40;0.30;;;13.90;99.90;;;;;;4858367;29;20897;-81
2024/02/14 12:34:01;;;;;;;1.10;0.60;;;14.00;99.90;;;;;;4836917;29;20529;-82
2024/02/14 12:36:29;;;;;;;0.30;0.30;;;14.20;99.90;;;;;;4836570;29;20053;-81
2024/02/14 12:38:56;;;;;;;0.70;0.43;;;14.20;99.90;;;;;;4838237;29;20045;-82
2024/02/14 12:41:26;;;;;;;0.50;0.50;;;14.30;99.90;;;;;;4860371;29;20055;-80
2024/02/14 12:43:54;;;;;;;0.70;0.60;;;14.30;99.90;;;;;;4855957;29;20060;-79
2024/02/14 12:46:20;;;;;;;0.20;0.20;;;14.40;99.90;;;;;;4837507;29;20579;-80
2024/02/14 12:48:48;;;;;;;0.55;0.30;;;14.50;99.90;;;;;;4849526;29;20116;-80
2024/02/14 12:51:15;;;;;;;1.00;0.38;;;14.40;99.90;;;;;;4853940;29;20065;-80